createdAt,value
2023-04-29T00:02:14.077Z,55.17
2023-04-29T00:04:40.733Z,56.70
2023-04-29T00:07:08.878Z,57.83
2023-04-29T00:09:36.114Z,57.20
2023-04-29T00:12:02.537Z,50.50
2023-04-29T00:14:28.984Z,49.13
2023-04-29T00:16:55.441Z,49.78
2023-04-29T00:19:21.867Z,49.10
2023-04-29T00:21:48.363Z,46.92
2023-04-29T00:24:14.693Z,48.65
2023-04-29T00:26:41.254Z,46.45
2023-04-29T00:29:07.681Z,46.33
2023-04-29T00:31:34.125Z,45.50
2023-04-29T00:34:00.611Z,46.13
2023-04-29T00:36:28.540Z,51.22
2023-04-29T00:38:55.081Z,48.50
2023-04-29T00:41:21.524Z,44.28
2023-04-29T00:43:47.963Z,43.25
2023-04-29T00:46:14.392Z,44.95
2023-04-29T00:48:41.442Z,44.08
2023-04-29T00:51:08.574Z,42.88
2023-04-29T00:53:35.654Z,38.88
2023-04-29T00:56:02.865Z,36.25
2023-04-29T00:58:35.259Z,36.03
2023-04-29T01:01:03.667Z,35.50
2023-04-29T01:03:31.674Z,36.20
2023-04-29T01:06:32.115Z,35.95
2023-04-29T01:09:14.217Z,32.53
2023-04-29T01:11:54.296Z,33.30
2023-04-29T01:14:21.857Z,36.17
2023-04-29T01:16:52.052Z,36.70
2023-04-29T01:19:38.779Z,36.40
2023-04-29T01:22:05.199Z,32.55
2023-04-29T01:24:31.633Z,36.80
2023-04-29T01:27:09.654Z,32.70
2023-04-29T01:29:45.719Z,35.50
2023-04-29T01:32:19.119Z,31.75
2023-04-29T01:34:59.775Z,35.53
2023-04-29T01:37:41.911Z,34.08
2023-04-29T01:40:25.504Z,33.55
2023-04-29T01:43:00.460Z,36.30
2023-04-29T01:45:28.764Z,33.15
2023-04-29T01:47:58.725Z,37.75
2023-04-29T01:50:25.165Z,34.40
2023-04-29T01:52:51.527Z,36.45
2023-04-29T01:55:18.052Z,37.75
2023-04-29T01:57:44.478Z,37.92
2023-04-29T02:00:11.841Z,39.90
2023-04-29T02:02:38.434Z,40.72
2023-04-29T02:05:05.130Z,39.30
2023-04-29T02:07:31.639Z,38.15
2023-04-29T02:09:58.101Z,38.47
2023-04-29T02:12:24.516Z,38.80
2023-04-29T02:14:54.265Z,38.25
2023-04-29T02:17:20.762Z,40.75
2023-04-29T02:19:47.210Z,41.35
2023-04-29T02:22:13.572Z,38.80
2023-04-29T02:24:40.216Z,42.17
2023-04-29T02:27:06.830Z,39.92
2023-04-29T02:29:33.389Z,39.75
2023-04-29T02:31:59.864Z,36.45
2023-04-29T02:34:26.251Z,38.60
2023-04-29T02:36:52.658Z,41.25
2023-04-29T02:39:20.544Z,40.60
2023-04-29T02:41:46.948Z,40.25
2023-04-29T02:44:13.412Z,39.55
2023-04-29T02:46:42.505Z,39.65
2023-04-29T02:49:08.835Z,39.22
2023-04-29T02:51:35.380Z,39.45
2023-04-29T02:54:01.806Z,37.63
2023-04-29T02:56:29.362Z,39.63
2023-04-29T02:58:55.807Z,40.75
2023-04-29T03:01:22.452Z,37.30
2023-04-29T03:03:49.240Z,38.83
2023-04-29T03:06:16.129Z,35.35
2023-04-29T03:08:43.166Z,32.00
2023-04-29T03:11:09.512Z,34.38
2023-04-29T03:13:36.053Z,32.58
2023-04-29T03:16:02.590Z,32.60
2023-04-29T03:18:28.921Z,37.30
2023-04-29T03:20:55.424Z,31.35
2023-04-29T03:23:22.401Z,37.58
2023-04-29T03:25:48.834Z,37.35
2023-04-29T03:28:15.366Z,37.63
2023-04-29T03:30:42.210Z,40.03
2023-04-29T03:33:08.606Z,37.58
2023-04-29T03:35:35.076Z,38.83
2023-04-29T03:38:01.615Z,41.03
2023-04-29T03:40:28.018Z,37.63
2023-04-29T03:42:54.451Z,42.13
2023-04-29T03:45:21.216Z,37.03
2023-04-29T03:47:47.661Z,38.20
2023-04-29T03:50:14.078Z,40.25
2023-04-29T03:52:40.516Z,39.47
2023-04-29T03:55:07.263Z,38.65
2023-04-29T03:57:33.601Z,39.08
2023-04-29T03:59:59.935Z,37.67
2023-04-29T04:02:26.611Z,34.30
2023-04-29T04:04:55.149Z,36.92
2023-04-29T04:07:21.880Z,35.55
2023-04-29T04:09:48.296Z,37.72
2023-04-29T04:12:14.650Z,32.53
2023-04-29T04:14:41.196Z,36.10
2023-04-29T04:17:07.546Z,35.72
2023-04-29T04:19:33.950Z,34.40
2023-04-29T04:22:00.402Z,31.30
2023-04-29T04:24:26.861Z,31.95
2023-04-29T04:26:53.237Z,29.60
2023-04-29T04:29:19.673Z,29.75
2023-04-29T04:31:47.209Z,29.33
2023-04-29T04:34:13.818Z,29.13
2023-04-29T04:36:40.220Z,31.13
2023-04-29T04:39:06.754Z,32.55
2023-04-29T04:41:33.412Z,29.90
2023-04-29T04:43:59.820Z,29.67
2023-04-29T04:46:26.270Z,27.95
2023-04-29T04:48:52.685Z,28.85
2023-04-29T04:51:19.155Z,26.70
2023-04-29T04:53:45.670Z,26.23
2023-04-29T04:56:12.111Z,24.95
2023-04-29T04:58:38.464Z,22.67
2023-04-29T05:01:05.006Z,22.00
2023-04-29T05:03:31.700Z,23.73
2023-04-29T05:06:00.305Z,23.17
2023-04-29T05:08:27.008Z,24.65
2023-04-29T05:10:54.271Z,26.80
2023-04-29T05:13:21.138Z,24.40
2023-04-29T05:15:47.687Z,27.90
2023-04-29T05:18:14.108Z,24.73
2023-04-29T05:20:40.525Z,27.83
2023-04-29T05:23:07.106Z,27.80
2023-04-29T05:25:33.521Z,30.95
2023-04-29T05:27:59.954Z,29.10
2023-04-29T05:30:27.060Z,25.98
2023-04-29T05:32:53.599Z,28.30
2023-04-29T05:35:20.083Z,31.02
2023-04-29T05:37:46.643Z,33.22
2023-04-29T05:40:13.233Z,31.00
2023-04-29T05:42:39.663Z,34.20
2023-04-29T05:45:06.721Z,36.33
2023-04-29T05:47:33.360Z,31.15
2023-04-29T05:49:59.795Z,31.33
2023-04-29T05:52:26.363Z,31.58
2023-04-29T05:54:52.892Z,31.83
2023-04-29T05:57:19.307Z,33.20
2023-04-29T05:59:45.843Z,40.38
2023-04-29T06:02:12.480Z,39.67
2023-04-29T06:04:41.163Z,35.08
2023-04-29T06:07:09.260Z,42.80
2023-04-29T06:09:36.926Z,39.53
2023-04-29T06:12:03.747Z,40.00
2023-04-29T06:14:30.294Z,36.38
2023-04-29T06:16:56.912Z,43.60
2023-04-29T06:19:24.903Z,38.25
2023-04-29T06:21:51.519Z,39.80
2023-04-29T06:24:17.978Z,40.92
2023-04-29T06:26:44.508Z,41.13
2023-04-29T06:29:10.938Z,48.33
2023-04-29T06:31:38.256Z,43.05
2023-04-29T06:34:04.842Z,48.05
2023-04-29T06:36:32.202Z,48.38
2023-04-29T06:38:58.847Z,50.42
2023-04-29T06:41:25.505Z,45.25
2023-04-29T06:43:51.918Z,44.65
2023-04-29T06:46:18.360Z,43.45
2023-04-29T06:48:44.880Z,49.50
2023-04-29T06:51:11.381Z,42.88
2023-04-29T06:53:37.766Z,45.55
2023-04-29T06:56:06.645Z,42.80
2023-04-29T06:58:33.211Z,42.42
2023-04-29T07:00:59.791Z,43.15
2023-04-29T07:03:26.671Z,44.78
2023-04-29T07:05:53.208Z,44.90
2023-04-29T07:08:19.630Z,39.05
2023-04-29T07:10:54.582Z,40.03
2023-04-29T07:13:21.157Z,41.90
2023-04-29T07:15:47.544Z,37.80
2023-04-29T07:18:14.053Z,40.42
2023-04-29T07:20:40.496Z,39.28
2023-04-29T07:23:06.942Z,39.05
2023-04-29T07:25:34.123Z,36.65
2023-04-29T07:28:00.564Z,36.30
2023-04-29T07:30:27.255Z,33.53
2023-04-29T07:32:53.746Z,31.17
2023-04-29T07:35:20.787Z,33.42
2023-04-29T07:37:47.268Z,35.00
2023-04-29T07:40:13.820Z,34.15
2023-04-29T07:42:40.359Z,32.67
2023-04-29T07:45:07.439Z,34.08
2023-04-29T07:47:33.965Z,32.25
2023-04-29T07:50:00.902Z,30.33
2023-04-29T07:52:27.422Z,30.35
2023-04-29T07:54:56.126Z,30.58
2023-04-29T07:57:22.663Z,32.17
2023-04-29T07:59:55.414Z,28.20
2023-04-29T08:02:22.060Z,31.73
2023-04-29T08:04:49.237Z,32.22
2023-04-29T08:07:15.828Z,31.83
2023-04-29T08:09:42.189Z,34.58
2023-04-29T08:12:09.121Z,32.67
2023-04-29T08:14:35.748Z,31.88
2023-04-29T08:17:02.096Z,33.05
2023-04-29T08:19:28.538Z,32.88
2023-04-29T08:21:55.078Z,32.85
2023-04-29T08:24:22.709Z,32.78
2023-04-29T08:26:49.084Z,32.45
2023-04-29T08:29:16.120Z,31.88
2023-04-29T08:31:42.588Z,33.10
2023-04-29T08:34:08.966Z,29.40
2023-04-29T08:36:36.967Z,30.50
2023-04-29T08:39:03.373Z,29.45
2023-04-29T08:41:32.411Z,27.73
2023-04-29T08:44:01.025Z,29.60
2023-04-29T08:46:27.793Z,26.52
2023-04-29T08:48:56.442Z,26.73
2023-04-29T08:51:22.904Z,31.75
2023-04-29T08:53:49.370Z,27.58
2023-04-29T08:56:21.774Z,24.85
2023-04-29T08:58:54.351Z,25.88
2023-04-29T09:01:23.061Z,23.00
2023-04-29T09:04:15.855Z,26.50
2023-04-29T09:06:42.301Z,24.42
2023-04-29T09:09:09.573Z,24.63
2023-04-29T09:11:36.995Z,21.27
2023-04-29T09:14:04.393Z,24.52
2023-04-29T09:16:31.119Z,23.98
2023-04-29T09:18:57.721Z,23.15
2023-04-29T09:21:26.022Z,21.10
2023-04-29T09:23:57.488Z,22.00
2023-04-29T09:26:25.055Z,22.40
2023-04-29T09:29:08.150Z,20.13
2023-04-29T09:31:35.082Z,21.08
2023-04-29T09:34:01.558Z,19.08
2023-04-29T09:36:49.084Z,18.58
2023-04-29T09:39:20.711Z,19.25
2023-04-29T09:41:53.216Z,19.83
2023-04-29T09:44:29.207Z,18.00
2023-04-29T09:47:05.041Z,15.82
2023-04-29T09:49:45.959Z,16.35
2023-04-29T09:52:15.096Z,16.02
2023-04-29T09:54:42.457Z,14.73
2023-04-29T09:57:10.706Z,16.40
2023-04-29T09:59:39.640Z,14.50
2023-04-29T10:02:15.398Z,14.77
2023-04-29T10:04:44.389Z,15.80
2023-04-29T10:07:14.868Z,14.98
2023-04-29T10:09:41.583Z,13.10
2023-04-29T10:12:08.370Z,14.48
2023-04-29T10:14:41.800Z,14.43
2023-04-29T10:17:11.491Z,15.10
2023-04-29T10:19:53.602Z,15.35
2023-04-29T10:22:36.112Z,13.27
2023-04-29T10:25:05.920Z,14.60
2023-04-29T10:27:33.995Z,12.68
2023-04-29T10:30:02.255Z,13.65
2023-04-29T10:32:36.959Z,15.02
2023-04-29T10:35:13.685Z,13.93
2023-04-29T10:37:44.618Z,12.05
2023-04-29T10:40:22.319Z,16.40
2023-04-29T10:42:52.844Z,12.85
2023-04-29T10:45:31.706Z,14.05
2023-04-29T10:48:09.055Z,16.10
2023-04-29T10:50:39.750Z,16.08
2023-04-29T10:53:06.179Z,13.95
2023-04-29T10:55:36.600Z,11.23
2023-04-29T10:58:04.345Z,14.57
2023-04-29T11:00:35.503Z,14.73
2023-04-29T11:03:05.589Z,12.88
2023-04-29T11:05:34.377Z,14.93
2023-04-29T11:08:16.365Z,9.93
2023-04-29T11:10:43.927Z,11.98
2023-04-29T11:13:30.544Z,13.77
2023-04-29T11:16:11.320Z,11.73
2023-04-29T11:19:03.907Z,11.05
2023-04-29T11:21:31.043Z,10.25
2023-04-29T11:23:57.636Z,11.68
2023-04-29T11:26:24.684Z,12.57
2023-04-29T11:28:52.096Z,13.68
2023-04-29T11:31:18.445Z,11.13
2023-04-29T11:33:44.907Z,10.15
2023-04-29T11:36:11.542Z,12.00
2023-04-29T11:38:40.805Z,12.40
2023-04-29T11:41:07.275Z,12.90
2023-04-29T11:43:33.609Z,11.50
2023-04-29T11:45:59.969Z,11.73
2023-04-29T11:48:26.553Z,12.43
2023-04-29T11:50:59.711Z,11.32
2023-04-29T11:53:27.785Z,11.43
2023-04-29T11:55:55.230Z,10.40
2023-04-29T11:58:22.504Z,11.18
2023-04-29T12:00:49.709Z,12.45
2023-04-29T12:03:18.000Z,12.93
2023-04-29T12:05:51.932Z,11.65
2023-04-29T12:08:26.426Z,9.38
2023-04-29T12:10:54.697Z,11.70
2023-04-29T12:13:23.638Z,8.40
2023-04-29T12:15:51.442Z,8.77
2023-04-29T12:18:19.525Z,9.57
2023-04-29T12:20:46.084Z,11.82
2023-04-29T12:23:18.925Z,10.88
2023-04-29T12:25:53.095Z,8.65
2023-04-29T12:28:20.041Z,6.63
2023-04-29T12:30:47.330Z,8.43
2023-04-29T12:33:21.885Z,8.05
2023-04-29T12:35:52.114Z,8.30
2023-04-29T12:38:27.719Z,7.90
2023-04-29T12:40:56.392Z,8.05
2023-04-29T12:43:29.987Z,8.00
2023-04-29T12:46:02.778Z,8.27
2023-04-29T12:48:46.500Z,8.27
2023-04-29T12:51:13.257Z,6.95
2023-04-29T12:53:39.708Z,9.25
2023-04-29T12:56:06.822Z,9.48
2023-04-29T12:58:34.754Z,12.82
2023-04-29T13:01:02.007Z,7.38
2023-04-29T13:03:28.965Z,9.77
2023-04-29T13:05:55.902Z,10.57
2023-04-29T13:08:22.985Z,8.63
2023-04-29T13:10:49.627Z,9.02
2023-04-29T13:13:16.218Z,9.55
2023-04-29T13:15:42.583Z,8.35
2023-04-29T13:18:08.992Z,8.07
2023-04-29T13:20:41.130Z,7.80
2023-04-29T13:23:08.441Z,8.10
2023-04-29T13:25:34.776Z,8.50
2023-04-29T13:28:01.106Z,7.85
2023-04-29T13:30:27.554Z,6.93
2023-04-29T13:32:56.752Z,9.25
2023-04-29T13:35:29.584Z,6.60
2023-04-29T13:37:56.949Z,7.70
2023-04-29T13:40:27.488Z,6.32
2023-04-29T13:43:02.160Z,6.57
2023-04-29T13:45:30.817Z,6.45
2023-04-29T13:48:09.446Z,4.57
2023-04-29T13:51:04.820Z,6.05
2023-04-29T13:56:58.214Z,5.80
2023-04-29T14:01:44.152Z,6.10
2023-04-29T14:04:03.364Z,5.30
2023-04-29T14:06:32.176Z,4.72
2023-04-29T14:09:00.480Z,5.18
2023-04-29T14:11:27.598Z,4.80
2023-04-29T14:13:53.935Z,5.45
2023-04-29T14:16:21.603Z,5.75
2023-04-29T14:18:47.948Z,6.18
2023-04-29T14:21:14.492Z,4.80
2023-04-29T14:23:41.156Z,4.55
2023-04-29T14:26:22.997Z,4.32
2023-04-29T14:28:57.646Z,4.95
2023-04-29T14:31:28.439Z,4.70
2023-04-29T14:33:55.778Z,6.28
2023-04-29T14:36:22.248Z,7.60
2023-04-29T14:38:48.885Z,6.50
2023-04-29T14:41:15.879Z,6.60
2023-04-29T14:43:42.829Z,6.97
2023-04-29T14:46:09.492Z,4.63
2023-04-29T14:48:36.006Z,4.03
2023-04-29T14:51:02.426Z,4.35
2023-04-29T14:53:28.774Z,6.80
2023-04-29T14:55:55.305Z,4.95
2023-04-29T14:58:21.703Z,5.25
2023-04-29T15:00:48.122Z,7.18
2023-04-29T15:03:22.075Z,5.85
2023-04-29T15:05:50.656Z,4.13
2023-04-29T15:08:17.958Z,5.22
2023-04-29T15:10:48.285Z,6.25
2023-04-29T15:13:14.811Z,4.43
2023-04-29T15:15:41.414Z,4.88
2023-04-29T15:18:08.738Z,5.57
2023-04-29T15:20:36.957Z,6.68
2023-04-29T15:23:04.423Z,6.47
2023-04-29T15:25:33.563Z,4.57
2023-04-29T15:28:00.353Z,4.97
2023-04-29T15:30:27.415Z,4.93
2023-04-29T15:32:55.232Z,8.27
2023-04-29T15:35:21.870Z,6.13
2023-04-29T15:37:48.429Z,6.68
2023-04-29T15:40:14.921Z,4.90
2023-04-29T15:42:41.463Z,5.22
2023-04-29T15:45:11.264Z,7.60
2023-04-29T15:47:37.798Z,6.20
2023-04-29T15:50:04.496Z,4.63
2023-04-29T15:52:31.286Z,5.13
2023-04-29T15:54:58.328Z,5.72
2023-04-29T15:57:25.724Z,5.10
2023-04-29T15:59:52.333Z,6.38
2023-04-29T16:02:20.276Z,5.78
2023-04-29T16:04:47.021Z,4.75
2023-04-29T16:07:13.719Z,6.78
2023-04-29T16:09:40.128Z,5.78
2023-04-29T16:12:06.564Z,4.55
2023-04-29T16:14:32.903Z,5.00
2023-04-29T16:17:00.382Z,4.50
2023-04-29T16:19:26.948Z,6.53
2023-04-29T16:21:53.300Z,4.65
2023-04-29T16:24:19.707Z,4.15
2023-04-29T16:26:47.973Z,5.15
2023-04-29T16:29:14.322Z,6.32
2023-04-29T16:31:40.852Z,3.28
2023-04-29T16:34:07.339Z,4.80
2023-04-29T16:36:33.812Z,4.35
2023-04-29T16:39:00.242Z,5.00
2023-04-29T16:41:26.836Z,4.82
2023-04-29T16:43:54.019Z,5.18
2023-04-29T16:46:20.585Z,6.10
2023-04-29T16:48:47.298Z,4.60
2023-04-29T16:51:14.015Z,5.28
2023-04-29T16:53:40.556Z,6.95
2023-04-29T16:56:07.243Z,4.90
2023-04-29T16:58:33.817Z,9.85
2023-04-29T17:01:00.325Z,5.85
2023-04-29T17:03:26.845Z,4.75
2023-04-29T17:05:53.299Z,6.05
2023-04-29T17:08:19.971Z,4.82
2023-04-29T17:10:46.692Z,6.10
2023-04-29T17:13:13.097Z,4.38
2023-04-29T17:15:40.231Z,4.35
2023-04-29T17:18:06.845Z,5.85
2023-04-29T17:20:33.848Z,6.72
2023-04-29T17:23:00.423Z,3.83
2023-04-29T17:25:26.767Z,6.57
2023-04-29T17:27:53.153Z,5.18
2023-04-29T17:30:19.687Z,5.38
2023-04-29T17:32:46.766Z,6.82
2023-04-29T17:35:13.208Z,4.63
2023-04-29T17:37:39.645Z,5.47
2023-04-29T17:40:06.684Z,3.95
2023-04-29T17:42:33.028Z,7.50
2023-04-29T17:44:59.414Z,6.35
2023-04-29T17:47:25.866Z,4.20
2023-04-29T17:49:53.153Z,5.45
2023-04-29T17:52:21.421Z,5.63
2023-04-29T17:54:50.729Z,2.65
2023-04-29T17:57:17.249Z,5.68
2023-04-29T17:59:43.654Z,5.30
2023-04-29T18:02:10.140Z,4.28
2023-04-29T18:04:37.290Z,2.70
2023-04-29T18:07:03.872Z,5.03
2023-04-29T18:09:30.431Z,3.15
2023-04-29T18:11:56.766Z,4.13
2023-04-29T18:14:23.430Z,3.92
2023-04-29T18:16:49.937Z,2.40
2023-04-29T18:19:16.350Z,4.22
2023-04-29T18:21:42.825Z,2.13
2023-04-29T18:24:09.167Z,4.88
2023-04-29T18:26:35.792Z,3.45
2023-04-29T18:29:02.260Z,2.40
2023-04-29T18:31:29.259Z,4.25
2023-04-29T18:33:55.695Z,2.72
2023-04-29T18:36:23.587Z,13.93
2023-04-29T18:38:50.450Z,3.67
2023-04-29T18:41:16.787Z,2.22
2023-04-29T18:43:43.196Z,3.33
2023-04-29T18:46:09.620Z,3.63
2023-04-29T18:48:36.535Z,2.83
2023-04-29T18:51:04.340Z,3.55
2023-04-29T18:53:31.690Z,3.85
2023-04-29T18:55:58.118Z,2.47
2023-04-29T18:58:26.788Z,5.75
2023-04-29T19:00:53.596Z,3.40
2023-04-29T19:03:20.455Z,3.50
2023-04-29T19:05:48.145Z,3.38
2023-04-29T19:08:16.374Z,3.75
2023-04-29T19:10:44.123Z,4.82
2023-04-29T19:13:11.406Z,4.82
2023-04-29T19:15:37.933Z,4.80
2023-04-29T19:18:04.966Z,6.90
2023-04-29T19:20:31.621Z,4.07
2023-04-29T19:22:58.015Z,3.45
2023-04-29T19:25:26.248Z,4.47
2023-04-29T19:27:53.531Z,3.45
2023-04-29T19:30:20.016Z,6.15
2023-04-29T19:32:47.073Z,7.57
2023-04-29T19:35:13.639Z,6.95
2023-04-29T19:37:40.515Z,5.68
2023-04-29T19:40:10.325Z,6.78
2023-04-29T19:42:37.896Z,6.63
2023-04-29T19:45:07.476Z,8.10
2023-04-29T19:47:34.772Z,7.22
2023-04-29T19:50:02.059Z,12.30
2023-04-29T19:52:29.828Z,6.30
2023-04-29T19:54:56.650Z,8.10
2023-04-29T19:57:23.348Z,10.23
2023-04-29T19:59:49.793Z,6.57
2023-04-29T20:02:16.336Z,6.22
2023-04-29T20:04:42.961Z,6.78
2023-04-29T20:07:09.380Z,7.30
2023-04-29T20:09:37.169Z,6.22
2023-04-29T20:12:04.040Z,6.85
2023-04-29T20:14:31.874Z,8.82
2023-04-29T20:17:00.568Z,5.28
2023-04-29T20:19:27.497Z,6.80
2023-04-29T20:21:54.159Z,9.02
2023-04-29T20:24:20.578Z,6.95
2023-04-29T20:26:47.593Z,7.28
2023-04-29T20:29:14.042Z,5.75
2023-04-29T20:31:40.753Z,6.75
2023-04-29T20:34:07.295Z,5.05
2023-04-29T20:36:33.762Z,7.40
2023-04-29T20:39:00.981Z,5.85
2023-04-29T20:41:28.881Z,6.00
2023-04-29T20:43:56.098Z,5.55
2023-04-29T20:46:24.614Z,9.50
2023-04-29T20:48:52.385Z,5.90
2023-04-29T20:51:18.826Z,6.20
2023-04-29T20:53:45.552Z,5.90
2023-04-29T20:56:11.959Z,6.65
2023-04-29T20:58:38.526Z,6.43
2023-04-29T21:01:05.014Z,4.93
2023-04-29T21:03:31.437Z,5.85
2023-04-29T21:05:58.110Z,6.10
2023-04-29T21:08:24.521Z,6.65
2023-04-29T21:10:51.348Z,5.75
2023-04-29T21:13:17.933Z,6.22
2023-04-29T21:15:47.009Z,5.85
2023-04-29T21:18:14.133Z,5.47
2023-04-29T21:20:40.704Z,6.78
2023-04-29T21:23:07.089Z,6.00
2023-04-29T21:25:33.484Z,5.85
2023-04-29T21:27:59.874Z,5.85
2023-04-29T21:30:26.248Z,8.10
2023-04-29T21:32:53.247Z,5.68
2023-04-29T21:35:19.995Z,5.47
2023-04-29T21:37:47.064Z,5.82
2023-04-29T21:40:14.269Z,5.28
2023-04-29T21:42:43.277Z,4.47
2023-04-29T21:45:10.294Z,4.68
2023-04-29T21:47:36.883Z,4.47
2023-04-29T21:50:03.410Z,4.15
2023-04-29T21:52:34.865Z,5.50
2023-04-29T21:55:02.372Z,5.22
2023-04-29T21:57:42.669Z,4.15
2023-04-29T22:00:20.640Z,4.78
2023-04-29T22:02:47.158Z,4.88
2023-04-29T22:05:13.508Z,4.47
2023-04-29T22:07:39.945Z,5.25
2023-04-29T22:10:06.981Z,5.45
2023-04-29T22:12:33.308Z,4.85
2023-04-29T22:14:59.788Z,4.97
2023-04-29T22:17:26.235Z,4.50
2023-04-29T22:19:52.794Z,5.88
2023-04-29T22:22:19.382Z,4.35
2023-04-29T22:24:45.812Z,5.50
2023-04-29T22:27:12.133Z,5.95
2023-04-29T22:29:39.235Z,5.70
2023-04-29T22:32:05.801Z,3.97
2023-04-29T22:34:32.289Z,4.15
2023-04-29T22:36:58.655Z,3.78
2023-04-29T22:39:25.337Z,7.72
2023-04-29T22:41:51.675Z,5.45
2023-04-29T22:44:18.027Z,8.25
2023-04-29T22:46:44.428Z,4.50
2023-04-29T22:49:10.929Z,5.88
2023-04-29T22:51:37.356Z,5.90
2023-04-29T22:54:03.868Z,6.32
2023-04-29T22:56:30.235Z,4.05
2023-04-29T22:58:56.567Z,4.35
2023-04-29T23:01:23.162Z,4.45
2023-04-29T23:03:49.560Z,5.10
2023-04-29T23:06:16.063Z,5.53
2023-04-29T23:08:44.107Z,6.15
2023-04-29T23:11:11.421Z,5.50
2023-04-29T23:13:37.780Z,4.70
2023-04-29T23:16:04.393Z,8.60
2023-04-29T23:18:30.867Z,5.32
2023-04-29T23:20:57.383Z,6.05
2023-04-29T23:23:23.818Z,4.70
2023-04-29T23:25:50.165Z,5.10
2023-04-29T23:28:16.526Z,4.60
2023-04-29T23:30:42.862Z,4.50
2023-04-29T23:33:09.383Z,5.20
2023-04-29T23:35:35.787Z,5.32
2023-04-29T23:38:02.142Z,5.85
2023-04-29T23:40:29.045Z,5.22
2023-04-29T23:42:55.875Z,5.25
2023-04-29T23:45:22.290Z,5.43
2023-04-29T23:47:48.736Z,4.55
2023-04-29T23:50:15.153Z,7.10
2023-04-29T23:52:41.569Z,5.13
2023-04-29T23:55:08.864Z,4.78
2023-04-29T23:57:35.264Z,5.22
